Time;durP1;ratioP1;P1;durP2;ratioP2;P2;SDS_P1;SDS_P2;PMS_P1;PMS_P2;Temp;Humidity;BMP_temperature;BMP_pressure;BME280_temperature;BME280_humidity;BME280_pressure;Samples;Min_cycle;Max_cycle;Signal;HPM_P1;HPM_P2
2021/05/19 00:01:23;;;;;;;0.40;0.40;;;;;;;7.07;95.16;95475.63;5013254;28;20252;-65
2021/05/19 00:03:51;;;;;;;0.30;0.30;;;;;;;7.06;95.25;95475.81;5015426;28;20434;-66
2021/05/19 00:06:18;;;;;;;0.63;0.63;;;;;;;7.05;95.48;95475.00;5021299;28;20225;-66
2021/05/19 00:08:45;;;;;;;0.97;0.20;;;;;;;7.05;95.46;95477.63;5017306;28;20504;-66
2021/05/19 00:11:13;;;;;;;0.60;0.60;;;;;;;7.12;94.70;95470.69;5010520;28;20228;-66
2021/05/19 00:13:40;;;;;;;0.30;0.30;;;;;;;7.02;94.69;95470.06;5018531;28;20691;-67
2021/05/19 00:16:08;;;;;;;3.23;1.67;;;;;;;6.96;94.50;95470.75;5014905;28;20249;-66
2021/05/19 00:18:37;;;;;;;0.70;0.70;;;;;;;6.97;94.94;95467.13;5014651;28;20282;-66
2021/05/19 00:21:06;;;;;;;3.20;0.50;;;;;;;6.91;94.77;95466.97;5012686;28;20224;-66
2021/05/19 00:23:34;;;;;;;0.40;0.40;;;;;;;6.89;94.96;95467.13;5017694;28;20464;-66
2021/05/19 00:26:01;;;;;;;3.17;0.47;;;;;;;6.84;95.42;95464.19;5052879;28;20248;-66
2021/05/19 00:28:29;;;;;;;0.43;0.43;;;;;;;6.83;94.49;95465.97;5015588;28;20232;-66
2021/05/19 00:30:59;;;;;;;1.50;0.47;;;;;;;6.84;94.16;95472.88;5021992;28;20294;-65
2021/05/19 00:33:27;;;;;;;0.50;0.30;;;;;;;6.81;94.20;95462.72;5017227;28;20227;-66
2021/05/19 00:35:55;;;;;;;0.40;0.40;;;;;;;6.83;94.27;95465.97;5019671;28;20271;-66
2021/05/19 00:38:23;;;;;;;2.47;0.30;;;;;;;6.83;93.36;95467.78;5023001;28;20657;-66
2021/05/19 00:40:50;;;;;;;0.50;0.40;;;;;;;6.82;93.15;95471.41;5011457;28;20297;-66
2021/05/19 00:43:18;;;;;;;0.60;0.37;;;;;;;6.83;93.18;95459.91;5017408;28;20294;-66
2021/05/19 00:45:45;;;;;;;1.60;0.40;;;;;;;6.82;94.23;95468.78;5014372;28;20303;-66
2021/05/19 00:48:12;;;;;;;0.93;0.70;;;;;;;6.84;93.83;95466.81;5020552;28;20224;-66
2021/05/19 00:50:40;;;;;;;0.20;0.20;;;;;;;6.82;93.93;95464.34;5020484;28;20630;-66
2021/05/19 00:53:09;;;;;;;1.63;0.67;;;;;;;6.83;93.68;95465.16;5012605;28;20219;-66
2021/05/19 00:55:36;;;;;;;0.53;0.30;;;;;;;6.84;93.63;95456.31;5012788;28;20227;-65
2021/05/19 00:58:04;;;;;;;0.30;0.30;;;;;;;6.81;93.52;95461.91;5018180;28;20231;-66
2021/05/19 01:00:37;;;;;;;1.87;0.40;;;;;;;6.87;93.71;95461.25;5016154;28;20470;-65
2021/05/19 01:03:10;;;;;;;0.30;0.30;;;;;;;6.86;93.49;95459.59;5053671;28;20227;-66
2021/05/19 01:05:41;;;;;;;0.60;0.30;;;;;;;6.82;94.15;95461.72;5021967;28;20227;-65
2021/05/19 01:11:10;;;;;;;0.30;0.30;;;;;;;6.85;94.20;95463.19;5009767;28;20250;-66
2021/05/19 01:13:42;;;;;;;0.50;0.40;;;;;;;6.85;94.38;95463.19;5016587;28;20251;-65
2021/05/19 01:16:09;;;;;;;0.30;0.30;;;;;;;6.84;94.84;95466.81;5013292;28;20227;-66
2021/05/19 01:18:39;;;;;;;0.30;0.30;;;;;;;6.85;94.71;95452.69;5008050;28;20224;-66
2021/05/19 01:21:07;;;;;;;0.93;0.50;;;;;;;6.85;94.61;95457.94;5013942;28;20594;-66
2021/05/19 01:23:37;;;;;;;0.50;0.20;;;;;;;6.90;94.50;95466.16;5024333;28;20228;-66
2021/05/19 01:26:08;;;;;;;0.40;0.30;;;;;;;6.83;94.63;95463.34;5015228;28;20303;-66
2021/05/19 01:28:36;;;;;;;0.60;0.37;;;;;;;6.87;94.61;95455.19;5040616;28;20767;-66
2021/05/19 01:31:04;;;;;;;1.13;0.60;;;;;;;6.85;94.45;95471.06;5007484;28;20283;-66
2021/05/19 01:33:35;;;;;;;1.83;0.27;;;;;;;6.85;94.64;95468.44;5017204;28;20231;-66
2021/05/19 01:36:03;;;;;;;0.93;0.63;;;;;;;6.86;94.47;95464.84;5018292;28;20273;-65
2021/05/19 01:38:31;;;;;;;0.70;0.20;;;;;;;6.85;94.38;95468.44;5013262;28;20226;-66
2021/05/19 01:40:59;;;;;;;0.70;0.43;;;;;;;6.86;94.17;95467.47;5007095;28;20616;-65
2021/05/19 01:43:31;;;;;;;1.90;0.60;;;;;;;6.84;94.55;95461.56;5023615;28;20242;-66
2021/05/19 01:46:20;;;;;;;0.83;0.40;;;;;;;6.82;94.81;95466.16;5015844;28;20216;-66
2021/05/19 01:48:56;;;;;;;2.23;0.63;;;;;;;6.78;94.85;95464.84;5004117;28;20230;-66
2021/05/19 01:51:23;;;;;;;2.70;0.80;;;;;;;6.78;95.22;95470.09;5012889;28;20250;-65
2021/05/19 01:53:51;;;;;;;0.77;0.50;;;;;;;6.80;95.13;95470.75;5014713;28;20228;-66
2021/05/19 01:56:20;;;;;;;0.50;0.50;;;;;;;6.80;95.53;95474.19;5016951;28;20223;-65
2021/05/19 01:58:50;;;;;;;0.73;0.40;;;;;;;6.82;95.60;95471.41;5021048;28;20701;-67
2021/05/19 02:01:18;;;;;;;0.50;0.40;;;;;;;6.77;95.45;95477.16;5039408;28;20239;-66
2021/05/19 02:03:48;;;;;;;1.03;0.60;;;;;;;6.78;95.97;95475.34;5019077;28;20234;-66
2021/05/19 02:06:16;;;;;;;0.47;0.40;;;;;;;6.76;96.07;95474.66;5009908;28;20231;-66
2021/05/19 02:08:47;;;;;;;0.70;0.70;;;;;;;6.73;95.94;95480.25;5014839;28;20228;-66
2021/05/19 02:11:16;;;;;;;0.40;0.40;;;;;;;6.74;96.34;95481.88;5012287;28;20644;-65
2021/05/19 02:13:44;;;;;;;2.00;0.40;;;;;;;6.75;96.60;95483.53;5013719;28;20229;-66
2021/05/19 02:16:13;;;;;;;0.87;0.87;;;;;;;6.74;96.16;95476.66;5019810;28;20329;-66
2021/05/19 02:18:45;;;;;;;0.87;0.53;;;;;;;6.75;96.41;95488.78;5011269;28;20232;-65
2021/05/19 02:21:15;;;;;;;1.90;0.73;;;;;;;6.77;96.40;95484.19;5019372;28;20722;-66
2021/05/19 02:23:55;;;;;;;0.73;0.70;;;;;;;6.75;96.53;95478.28;5014096;28;20223;-66
2021/05/19 02:26:23;;;;;;;3.33;1.50;;;;;;;6.78;96.12;95483.22;5013418;28;20229;-66
2021/05/19 02:28:51;;;;;;;1.00;0.93;;;;;;;6.78;96.27;95480.59;5007197;28;20699;-66
2021/05/19 02:31:19;;;;;;;0.63;0.60;;;;;;;6.82;96.08;95495.00;5011235;28;20314;-66
2021/05/19 02:33:47;;;;;;;1.23;0.43;;;;;;;6.85;96.34;95487.59;5025866;28;20260;-66
2021/05/19 02:36:14;;;;;;;0.57;0.37;;;;;;;6.82;96.20;95495.00;5021009;28;20216;-66
2021/05/19 02:38:41;;;;;;;1.27;0.60;;;;;;;6.85;96.08;95485.00;5020156;28;20228;-66
2021/05/19 02:41:09;;;;;;;0.70;0.70;;;;;;;6.81;96.11;95483.69;5020849;28;20216;-66
2021/05/19 02:43:38;;;;;;;0.90;0.90;;;;;;;6.83;96.63;95480.91;5022930;28;20289;-65
2021/05/19 02:46:07;;;;;;;0.73;0.57;;;;;;;6.78;96.27;95477.97;5020088;28;20220;-66
2021/05/19 02:48:34;;;;;;;1.13;1.03;;;;;;;6.79;96.33;95484.84;5007922;28;20248;-66
2021/05/19 02:51:02;;;;;;;1.13;0.50;;;;;;;6.73;96.44;95475.00;5015339;28;20582;-66
2021/05/19 02:53:29;;;;;;;0.67;0.63;;;;;;;6.73;96.33;95475.00;5021213;28;20513;-66
2021/05/19 02:55:56;;;;;;;0.77;0.77;;;;;;;6.76;96.70;95485.16;5012815;28;20297;-66
2021/05/19 02:58:24;;;;;;;1.13;0.50;;;;;;;6.67;96.93;95480.91;5011853;28;20229;-65
2021/05/19 03:00:52;;;;;;;0.90;0.50;;;;;;;6.60;96.99;95490.44;5020379;28;20224;-66
2021/05/19 03:03:20;;;;;;;0.87;0.53;;;;;;;6.64;96.99;95496.97;5018352;28;20234;-66
2021/05/19 03:05:47;;;;;;;0.93;0.87;;;;;;;6.65;97.09;95503.84;5023483;28;20770;-66
2021/05/19 03:08:15;;;;;;;1.17;0.53;;;;;;;6.62;97.33;95504.19;5011270;28;20255;-65
2021/05/19 03:10:42;;;;;;;7.20;0.70;;;;;;;6.62;97.34;95498.94;5013919;28;20290;-66
2021/05/19 03:13:10;;;;;;;0.73;0.60;;;;;;;6.63;97.31;95508.44;5018100;28;20286;-64
2021/05/19 03:15:37;;;;;;;1.07;0.60;;;;;;;6.64;97.34;95507.47;5023195;28;20319;-64
2021/05/19 03:18:05;;;;;;;1.63;0.70;;;;;;;6.66;97.34;95510.72;5019208;28;20556;-64
2021/05/19 03:20:34;;;;;;;1.17;1.13;;;;;;;6.69;97.34;95510.41;5012119;28;20221;-64
2021/05/19 03:23:01;;;;;;;1.93;0.67;;;;;;;6.65;97.47;95509.91;5019053;28;20289;-64
2021/05/19 03:25:28;;;;;;;0.80;0.77;;;;;;;6.68;97.92;95514.84;5015194;28;20725;-64
2021/05/19 03:27:56;;;;;;;2.20;0.90;;;;;;;6.71;97.49;95516.31;5017269;28;20227;-64
2021/05/19 03:30:23;;;;;;;0.60;0.40;;;;;;;6.71;97.67;95517.13;5020201;28;20540;-64
2021/05/19 03:32:51;;;;;;;2.60;0.90;;;;;;;6.76;97.52;95521.88;5019800;28;20560;-64
2021/05/19 03:35:19;;;;;;;1.40;0.60;;;;;;;6.73;97.34;95516.97;5020243;28;20227;-64
2021/05/19 03:37:47;;;;;;;1.07;0.97;;;;;;;6.74;97.50;95523.84;5023149;28;20438;-62
2021/05/19 03:40:16;;;;;;;1.57;0.70;;;;;;;6.82;97.21;95515.97;5017706;28;20653;-64
2021/05/19 03:42:44;;;;;;;3.60;0.80;;;;;;;6.83;96.81;95512.38;5012764;28;20714;-64
2021/05/19 03:45:14;;;;;;;0.80;0.70;;;;;;;6.78;97.10;95515.50;5017973;28;20306;-65
2021/05/19 03:47:42;;;;;;;0.80;0.70;;;;;;;6.80;97.42;95525.81;5022696;28;20970;-64
2021/05/19 03:50:11;;;;;;;1.73;0.53;;;;;;;6.83;97.18;95531.56;5021012;28;20244;-64
2021/05/19 03:52:38;;;;;;;0.77;0.77;;;;;;;6.86;97.40;95527.81;5022766;28;20889;-64
2021/05/19 03:55:09;;;;;;;0.50;0.50;;;;;;;6.86;96.97;95533.03;5007384;28;20568;-64
2021/05/19 03:57:37;;;;;;;4.00;1.03;;;;;;;6.88;96.94;95536.31;5017556;28;20232;-65
2021/05/19 04:00:08;;;;;;;0.83;0.83;;;;;;;6.88;97.28;95533.69;5019341;28;20244;-65
2021/05/19 04:02:38;;;;;;;0.83;0.70;;;;;;;6.94;96.63;95540.06;5017897;28;20430;-64
2021/05/19 04:05:06;;;;;;;0.50;0.50;;;;;;;6.88;97.16;95536.31;5013202;28;20228;-64
2021/05/19 04:07:34;;;;;;;1.13;1.03;;;;;;;6.88;97.28;95546.81;5012007;28;20767;-65
2021/05/19 04:10:01;;;;;;;0.97;0.80;;;;;;;6.89;97.28;95551.06;5017737;28;20252;-64
2021/05/19 04:12:29;;;;;;;1.27;0.83;;;;;;;6.85;97.78;95544.50;5013807;28;20221;-64
2021/05/19 04:14:56;;;;;;;0.70;0.70;;;;;;;6.86;97.86;95551.41;5017776;28;20228;-64
2021/05/19 04:17:24;;;;;;;0.67;0.67;;;;;;;6.82;97.77;95543.03;5013816;28;20636;-65
2021/05/19 04:19:51;;;;;;;2.03;1.07;;;;;;;6.82;97.68;95550.06;5014294;28;20447;-63
2021/05/19 04:22:18;;;;;;;0.80;0.80;;;;;;;6.80;98.14;95552.06;5010088;28;20310;-63
2021/05/19 04:24:46;;;;;;;1.17;0.77;;;;;;;6.81;97.89;95556.31;5015346;28;20709;-65
2021/05/19 04:27:13;;;;;;;0.67;0.67;;;;;;;6.81;98.18;95556.31;5022358;28;20322;-64
2021/05/19 04:29:42;;;;;;;1.33;1.23;;;;;;;6.80;97.99;95550.25;5019324;28;20227;-65
2021/05/19 04:32:10;;;;;;;1.10;0.70;;;;;;;6.78;98.20;95551.41;5018705;28;20308;-64
2021/05/19 04:34:38;;;;;;;2.80;1.73;;;;;;;6.80;98.62;95554.69;5015126;28;20232;-65
2021/05/19 04:37:06;;;;;;;1.70;1.03;;;;;;;6.84;98.93;95561.22;5016057;28;20231;-65
2021/05/19 04:39:34;;;;;;;1.87;1.30;;;;;;;6.80;99.26;95554.69;5019227;28;20277;-63
2021/05/19 04:42:02;;;;;;;1.27;0.90;;;;;;;6.84;99.00;95562.03;5019417;28;20273;-64
2021/05/19 04:44:29;;;;;;;0.77;0.77;;;;;;;6.88;98.36;95565.19;5020133;28;20289;-64
2021/05/19 04:46:57;;;;;;;2.93;1.00;;;;;;;6.84;98.72;95567.28;5017268;28;20655;-64
2021/05/19 04:49:25;;;;;;;1.43;1.43;;;;;;;6.91;98.42;95561.41;5018399;28;20694;-65
2021/05/19 04:51:52;;;;;;;1.13;1.03;;;;;;;6.89;98.44;95569.44;5017952;28;20262;-65
2021/05/19 04:54:20;;;;;;;0.90;0.90;;;;;;;6.90;98.41;95571.06;5017405;28;20294;-65
2021/05/19 04:56:47;;;;;;;1.53;1.43;;;;;;;6.90;98.69;95576.31;5019018;28;20215;-64
2021/05/19 04:59:14;;;;;;;1.07;1.03;;;;;;;6.99;98.95;95577.97;5037553;28;20252;-64
2021/05/19 05:01:43;;;;;;;2.27;1.07;;;;;;;6.99;98.70;95575.34;5021376;28;20223;-65
2021/05/19 05:04:11;;;;;;;1.73;1.63;;;;;;;7.05;98.78;95585.19;5019653;28;20317;-64
2021/05/19 05:06:38;;;;;;;1.03;1.03;;;;;;;7.07;98.71;95579.78;5019982;28;20211;-64
2021/05/19 05:09:06;;;;;;;1.80;1.07;;;;;;;7.02;97.88;95585.50;5017579;28;20281;-63
2021/05/19 05:11:33;;;;;;;1.60;1.17;;;;;;;7.04;97.52;95588.78;5017432;28;20297;-64
2021/05/19 05:14:00;;;;;;;2.07;0.80;;;;;;;6.98;97.51;95580.75;5018379;28;20720;-65
2021/05/19 05:16:28;;;;;;;1.20;1.10;;;;;;;7.05;98.08;95584.38;5021256;28;20313;-64
2021/05/19 05:18:55;;;;;;;0.87;0.87;;;;;;;7.06;97.72;95586.81;5020603;28;20247;-64
2021/05/19 05:21:24;;;;;;;1.17;0.97;;;;;;;7.19;98.16;95590.75;5013154;28;20228;-65
2021/05/19 05:23:52;;;;;;;0.97;0.97;;;;;;;7.15;97.46;95592.91;5017682;28;20629;-64
2021/05/19 05:26:19;;;;;;;2.50;1.07;;;;;;;7.15;97.08;95587.66;5015797;28;20253;-64
2021/05/19 05:28:46;;;;;;;1.00;1.00;;;;;;;7.22;97.52;95590.41;5016930;28;20222;-64
2021/05/19 05:31:14;;;;;;;1.10;1.00;;;;;;;7.21;97.42;95601.91;5020498;28;20561;-65
2021/05/19 05:33:41;;;;;;;1.37;1.27;;;;;;;7.22;97.25;95598.28;5019227;28;20305;-63
2021/05/19 05:36:09;;;;;;;1.77;1.67;;;;;;;7.24;97.58;95598.97;5013592;28;20211;-64
2021/05/19 05:38:37;;;;;;;2.83;1.43;;;;;;;7.30;97.03;95593.03;5022183;28;20700;-64
2021/05/19 05:41:05;;;;;;;2.20;1.50;;;;;;;7.27;97.06;95603.88;5020510;28;20707;-64
2021/05/19 05:43:32;;;;;;;2.03;1.93;;;;;;;7.28;97.57;95600.25;5020655;28;20242;-64
2021/05/19 05:46:00;;;;;;;2.50;2.33;;;;;;;7.24;97.88;95602.41;5001375;28;20237;-64
2021/05/19 05:48:27;;;;;;;1.57;1.47;;;;;;;7.29;97.31;95596.66;5040040;28;20247;-63
2021/05/19 05:50:55;;;;;;;1.73;1.63;;;;;;;7.25;97.37;95600.59;5017962;28;20224;-64
2021/05/19 05:53:22;;;;;;;2.23;2.10;;;;;;;7.24;97.70;95605.03;5015121;28;20216;-63
2021/05/19 05:55:50;;;;;;;3.00;1.63;;;;;;;7.24;97.29;95604.22;5013176;28;20279;-64
2021/05/19 05:58:17;;;;;;;1.47;1.37;;;;;;;7.23;97.48;95608.66;5012938;28;20219;-65
2021/05/19 06:00:45;;;;;;;1.57;1.50;;;;;;;7.24;97.85;95599.78;5019139;28;20641;-65
2021/05/19 06:03:12;;;;;;;1.77;1.67;;;;;;;7.31;97.90;95602.53;5018438;28;20223;-63
2021/05/19 06:05:40;;;;;;;2.00;1.90;;;;;;;7.37;97.40;95612.41;5019673;28;20875;-63
2021/05/19 06:08:08;;;;;;;0.93;0.93;;;;;;;7.37;96.81;95604.53;5026855;28;20732;-65
2021/05/19 06:10:36;;;;;;;1.03;1.03;;;;;;;7.40;96.96;95614.69;5024606;28;20230;-64
2021/05/19 06:13:04;;;;;;;1.70;1.60;;;;;;;7.47;96.63;95610.41;5021156;28;20213;-62
2021/05/19 06:15:31;;;;;;;1.07;1.00;;;;;;;7.50;96.11;95612.72;5024154;28;20314;-64
2021/05/19 06:17:59;;;;;;;2.40;1.17;;;;;;;7.56;95.16;95617.28;5022001;28;20298;-64
2021/05/19 06:20:26;;;;;;;1.37;1.07;;;;;;;7.52;95.18;95615.19;5027670;28;20216;-65
2021/05/19 06:22:54;;;;;;;4.00;1.63;;;;;;;7.63;94.80;95614.84;5020180;28;20224;-63
2021/05/19 06:25:22;;;;;;;1.00;1.00;;;;;;;7.69;94.75;95615.00;5022280;28;20662;-64
2021/05/19 06:27:50;;;;;;;1.93;1.37;;;;;;;7.80;95.14;95615.63;5023876;28;20235;-64
2021/05/19 06:30:18;;;;;;;1.17;1.07;;;;;;;7.92;94.96;95617.72;5017898;28;20228;-63
2021/05/19 06:32:46;;;;;;;0.50;0.50;;;;;;;7.90;93.72;95624.13;5022815;28;20231;-64
2021/05/19 06:35:13;;;;;;;1.40;1.30;;;;;;;8.01;93.47;95610.63;5019877;28;20714;-63
2021/05/19 06:37:41;;;;;;;0.87;0.87;;;;;;;8.26;93.53;95625.34;5025028;28;20693;-64
2021/05/19 06:40:09;;;;;;;1.20;1.20;;;;;;;8.46;93.56;95622.34;5022127;28;20580;-65
2021/05/19 06:42:36;;;;;;;2.43;0.97;;;;;;;8.39;92.38;95616.09;5025583;28;20602;-64
2021/05/19 06:45:05;;;;;;;1.20;1.10;;;;;;;8.43;92.10;95620.06;5019593;28;20241;-64
2021/05/19 06:47:34;;;;;;;1.00;0.97;;;;;;;8.46;91.40;95627.59;5018441;28;20499;-64
2021/05/19 06:50:01;;;;;;;1.33;0.90;;;;;;;8.51;92.14;95626.09;5021104;28;20981;-64
2021/05/19 06:52:29;;;;;;;1.17;1.17;;;;;;;8.56;90.42;95628.19;5018934;28;20303;-64
2021/05/19 06:54:57;;;;;;;0.97;0.77;;;;;;;8.72;91.41;95628.13;5025099;28;20483;-65
2021/05/19 06:57:24;;;;;;;0.73;0.73;;;;;;;8.65;89.69;95610.56;5021217;28;20472;-63
2021/05/19 06:59:51;;;;;;;0.50;0.50;;;;;;;8.65;89.69;95627.16;5021718;28;20631;-63
2021/05/19 07:02:19;;;;;;;1.00;0.90;;;;;;;8.68;90.49;95621.53;5022540;28;20766;-64
2021/05/19 07:04:48;;;;;;;1.00;1.00;;;;;;;8.72;89.28;95622.84;5018816;28;20219;-64
2021/05/19 07:07:15;;;;;;;1.70;1.60;;;;;;;8.75;90.51;95627.75;5025513;28;20253;-64
2021/05/19 07:09:43;;;;;;;1.17;1.10;;;;;;;8.73;90.33;95624.50;5017994;28;20314;-62
2021/05/19 07:12:12;;;;;;;1.10;1.10;;;;;;;8.87;89.93;95630.84;5018388;28;20741;-64
2021/05/19 07:14:46;;;;;;;1.30;1.20;;;;;;;9.20;91.18;95631.41;5016860;28;20259;-64
2021/05/19 07:17:14;;;;;;;1.23;1.10;;;;;;;9.32;89.29;95631.81;5021345;28;20704;-64
2021/05/19 07:19:42;;;;;;;1.00;1.00;;;;;;;9.23;89.30;95625.78;5019793;28;20306;-64
2021/05/19 07:22:10;;;;;;;0.80;0.80;;;;;;;9.22;88.90;95629.41;5018371;28;20224;-64
2021/05/19 07:24:37;;;;;;;1.67;1.57;;;;;;;9.17;88.43;95634.41;5022233;28;20223;-63
2021/05/19 07:27:05;;;;;;;1.77;1.67;;;;;;;9.13;89.01;95630.47;5022622;28;20253;-65
2021/05/19 07:29:32;;;;;;;2.90;1.70;;;;;;;9.14;88.93;95632.09;5023035;28;20253;-65
2021/05/19 07:32:00;;;;;;;1.73;1.63;;;;;;;9.27;88.88;95637.63;5017675;28;20611;-64
2021/05/19 07:34:27;;;;;;;2.47;1.97;;;;;;;9.48;87.97;95638.78;5020647;28;20304;-65
2021/05/19 07:36:54;;;;;;;1.00;1.00;;;;;;;9.61;85.95;95642.47;5022921;28;20306;-64
2021/05/19 07:39:23;;;;;;;3.43;2.13;;;;;;;9.66;87.16;95628.75;5018522;28;20235;-63
2021/05/19 07:41:58;;;;;;;1.67;1.57;;;;;;;9.57;86.68;95632.44;5017220;28;20230;-65
2021/05/19 07:44:25;;;;;;;1.33;1.30;;;;;;;9.65;87.50;95635.00;5019422;28;20739;-65
2021/05/19 07:46:51;;;;;;;1.70;1.60;;;;;;;9.72;85.99;95641.22;5020835;28;20764;-63
2021/05/19 07:49:17;;;;;;;2.00;1.90;;;;;;;9.79;85.04;95631.59;5014134;28;20234;-65
2021/05/19 07:51:44;;;;;;;1.40;1.23;;;;;;;9.74;85.12;95639.22;5015489;28;20224;-63
2021/05/19 07:54:14;;;;;;;1.67;1.57;;;;;;;9.75;85.59;95640.84;5019139;28;20219;-64
2021/05/19 07:56:43;;;;;;;2.17;2.00;;;;;;;9.43;85.85;95641.13;5017353;28;20302;-64
2021/05/19 07:59:11;;;;;;;1.77;1.67;;;;;;;9.55;86.08;95642.34;5018786;28;20219;-64
2021/05/19 08:04:25;;;;;;;2.33;2.13;;;;;;;9.77;85.35;95640.66;5013727;28;20227;-64
2021/05/19 08:06:51;;;;;;;1.43;1.43;;;;;;;9.65;84.46;95635.81;5018031;28;20219;-65
2021/05/19 08:09:17;;;;;;;2.20;2.10;;;;;;;9.74;84.31;95639.22;5024594;28;20247;-64
2021/05/19 08:11:44;;;;;;;3.10;2.50;;;;;;;9.82;83.16;95633.88;5020756;28;20274;-63
2021/05/19 08:14:10;;;;;;;2.47;2.33;;;;;;;10.16;83.14;95632.53;5018326;28;20385;-64
2021/05/19 08:16:37;;;;;;;2.00;1.90;;;;;;;10.12;82.10;95631.25;5015497;28;20220;-63
2021/05/19 08:19:04;;;;;;;2.80;2.63;;;;;;;9.82;83.03;95636.50;5023546;28;20231;-64
2021/05/19 08:21:31;;;;;;;2.33;2.13;;;;;;;9.67;82.69;95631.19;5020846;28;20255;-64
2021/05/19 08:23:58;;;;;;;2.70;2.50;;;;;;;9.79;84.77;95636.88;5027599;28;20220;-64
2021/05/19 08:26:26;;;;;;;2.47;2.33;;;;;;;9.74;83.98;95628.66;5019859;28;20297;-64
2021/05/19 08:28:54;;;;;;;2.53;2.40;;;;;;;9.63;84.72;95637.00;5022088;28;20250;-64
2021/05/19 08:31:21;;;;;;;2.60;2.40;;;;;;;9.69;85.50;95637.13;5019860;28;20774;-64
2021/05/19 08:34:08;;;;;;;3.07;2.73;;;;;;;9.78;84.08;95624.66;5014150;28;20238;-65
2021/05/19 08:36:35;;;;;;;2.03;1.93;;;;;;;9.85;83.47;95638.75;5021686;28;20230;-64
2021/05/19 08:39:03;;;;;;;4.07;3.77;;;;;;;9.90;83.57;95633.78;5023422;28;20245;-64
2021/05/19 08:41:30;;;;;;;2.83;2.63;;;;;;;10.14;82.50;95627.41;5020660;28;20273;-65
2021/05/19 08:43:58;;;;;;;2.80;2.37;;;;;;;10.47;80.77;95645.56;5019056;28;20733;-64
2021/05/19 08:46:27;;;;;;;1.67;1.53;;;;;;;10.94;79.62;95621.34;5022758;28;20258;-64
2021/05/19 08:49:01;;;;;;;2.43;2.33;;;;;;;11.30;77.57;95615.19;5021387;28;20223;-65
2021/05/19 08:51:29;;;;;;;1.90;1.80;;;;;;;10.88;78.20;95614.19;5013557;28;20272;-64
2021/05/19 08:53:56;;;;;;;2.97;2.77;;;;;;;10.66;78.00;95621.22;5023688;28;20728;-64
2021/05/19 08:56:23;;;;;;;2.63;2.53;;;;;;;10.50;79.80;95614.34;5022324;28;20293;-64
2021/05/19 08:58:51;;;;;;;3.10;2.90;;;;;;;10.25;79.74;95628.84;5023036;28;20251;-64
2021/05/19 09:01:20;;;;;;;3.13;2.80;;;;;;;10.07;79.07;95623.09;5015250;28;20219;-64
2021/05/19 09:04:02;;;;;;;2.13;1.97;;;;;;;10.11;79.91;95624.34;5021941;28;20324;-64
2021/05/19 09:06:34;;;;;;;2.10;2.00;;;;;;;10.01;80.29;95626.44;5015445;28;20220;-64
2021/05/19 09:09:20;;;;;;;2.03;1.93;;;;;;;9.96;80.76;95632.22;5020152;28;20235;-64
2021/05/19 09:12:02;;;;;;;2.47;2.27;;;;;;;9.88;81.79;95632.34;5022588;28;20307;-65
2021/05/19 09:14:32;;;;;;;2.20;2.00;;;;;;;9.24;83.63;95638.00;5018684;28;20227;-65
2021/05/19 09:17:22;;;;;;;3.37;3.10;;;;;;;8.81;84.92;95644.69;5019135;28;20238;-65
2021/05/19 09:19:57;;;;;;;3.20;3.00;;;;;;;8.71;87.28;95636.19;5017885;28;20229;-64
2021/05/19 09:22:26;;;;;;;2.77;2.67;;;;;;;8.77;89.31;95635.47;5024832;28;20307;-65
2021/05/19 09:24:53;;;;;;;2.47;2.37;;;;;;;8.71;90.47;95636.19;5022345;28;20226;-65
2021/05/19 09:27:21;;;;;;;3.43;3.23;;;;;;;8.75;92.97;95634.84;5015578;28;20218;-65
2021/05/19 09:29:51;;;;;;;3.27;2.97;;;;;;;8.77;92.96;95636.28;5022268;28;20679;-63
2021/05/19 09:32:21;;;;;;;3.73;3.50;;;;;;;8.97;93.56;95638.50;5021949;28;20381;-65
2021/05/19 09:34:52;;;;;;;3.20;3.00;;;;;;;9.05;91.35;95641.91;5018515;28;20677;-65
2021/05/19 09:37:23;;;;;;;2.27;2.07;;;;;;;9.36;88.83;95628.66;5027110;28;20242;-65
2021/05/19 09:39:56;;;;;;;2.90;2.40;;;;;;;9.44;87.45;95637.50;5018717;28;20230;-65
2021/05/19 09:42:25;;;;;;;2.30;2.17;;;;;;;9.85;86.48;95617.69;5009947;28;20309;-65
2021/05/19 09:44:55;;;;;;;3.17;3.03;;;;;;;10.97;88.62;95623.63;5017709;28;20239;-65
2021/05/19 09:47:40;;;;;;;4.73;4.43;;;;;;;11.78;84.45;95602.97;5018304;28;20220;-65
2021/05/19 09:50:10;;;;;;;2.90;2.70;;;;;;;12.37;81.30;95612.34;5013064;28;20307;-66
2021/05/19 09:52:37;;;;;;;2.83;2.73;;;;;;;12.51;83.10;95598.97;5013924;28;20255;-65
2021/05/19 09:55:07;;;;;;;2.37;2.23;;;;;;;12.25;77.32;95609.41;5015768;28;20825;-65
2021/05/19 09:57:48;;;;;;;3.00;2.80;;;;;;;11.91;77.68;95607.59;5015937;28;20244;-65
2021/05/19 10:00:20;;;;;;;3.50;3.30;;;;;;;11.59;78.20;95607.09;5016584;28;20784;-65
2021/05/19 10:02:49;;;;;;;2.93;2.83;;;;;;;11.35;79.17;95599.59;5019621;28;20238;-65
2021/05/19 10:05:17;;;;;;;2.90;2.80;;;;;;;11.17;77.50;95597.41;5020198;28;20298;-65
2021/05/19 10:07:45;;;;;;;2.63;2.43;;;;;;;11.46;80.48;95603.56;5014784;28;20251;-64
2021/05/19 10:10:12;;;;;;;2.43;2.33;;;;;;;12.05;79.02;95598.72;5008997;28;20275;-65
2021/05/19 10:12:41;;;;;;;5.43;3.27;;;;;;;11.74;76.05;95595.66;5002445;28;20231;-65
2021/05/19 10:15:12;;;;;;;2.40;2.20;;;;;;;12.33;79.73;95600.50;5010989;28;20229;-65
2021/05/19 10:17:43;;;;;;;3.10;2.93;;;;;;;12.62;77.39;95583.53;5014976;28;20510;-65
2021/05/19 10:20:16;;;;;;;2.57;2.47;;;;;;;13.14;75.89;95587.34;5018275;28;20577;-65
2021/05/19 10:22:45;;;;;;;3.13;2.93;;;;;;;13.34;74.99;95575.78;5015880;28;20227;-66
2021/05/19 10:25:33;;;;;;;2.40;2.20;;;;;;;13.65;74.68;95574.38;5020200;28;20251;-65
2021/05/19 10:28:03;;;;;;;2.27;2.17;;;;;;;13.75;72.07;95579.25;5021286;28;20250;-65
2021/05/19 10:30:42;;;;;;;2.70;2.50;;;;;;;14.40;70.09;95567.69;5022076;28;20515;-66
2021/05/19 10:33:45;;;;;;;2.43;2.33;;;;;;;14.02;72.75;95569.41;5020334;28;20228;-65
2021/05/19 10:36:40;;;;;;;1.67;1.57;;;;;;;13.47;70.52;95566.22;5015571;28;20226;-64
2021/05/19 10:39:23;;;;;;;1.40;1.30;;;;;;;13.83;71.93;95577.22;5017036;28;20227;-64
2021/05/19 10:41:52;;;;;;;2.07;1.97;;;;;;;13.73;69.62;95576.00;5011605;28;20223;-66
2021/05/19 10:44:21;;;;;;;2.33;2.23;;;;;;;13.83;68.23;95579.84;5014417;28;20774;-66
2021/05/19 10:46:56;;;;;;;2.03;1.73;;;;;;;14.14;67.98;95568.56;5008303;28;20223;-65
2021/05/19 10:50:09;;;;;;;2.17;2.07;;;;;;;14.56;70.86;95576.25;5016506;28;20902;-65
2021/05/19 10:58:48;;;;;;;2.80;1.60;;;;;;;15.22;62.88;95555.44;5018260;28;20219;-64
2021/05/19 11:01:36;;;;;;;1.80;1.70;;;;;;;15.59;63.86;95548.41;5019662;28;20231;-65
2021/05/19 11:04:15;;;;;;;1.90;1.80;;;;;;;15.32;61.87;95550.44;5017653;28;20297;-65
2021/05/19 11:07:05;;;;;;;1.93;1.37;;;;;;;14.87;64.94;95549.72;5018722;28;20223;-63
2021/05/19 11:09:34;;;;;;;0.80;0.80;;;;;;;13.53;65.39;95554.75;5014257;28;20258;-65
2021/05/19 11:12:46;;;;;;;0.60;0.60;;;;;;;12.77;65.34;95571.78;5019486;28;20474;-64
2021/05/19 11:15:45;;;;;;;0.50;0.50;;;;;;;12.93;69.85;95575.06;5022646;28;20306;-66
2021/05/19 11:18:19;;;;;;;1.43;0.77;;;;;;;13.24;71.47;95583.31;5016734;28;20231;-66
2021/05/19 11:20:46;;;;;;;2.63;1.43;;;;;;;13.59;73.09;95575.16;5021514;28;20222;-66
2021/05/19 11:23:15;;;;;;;0.73;0.50;;;;;;;14.07;73.04;95573.06;5019972;28;20231;-66
2021/05/19 11:25:44;;;;;;;0.83;0.83;;;;;;;14.66;73.34;95555.34;5023130;28;20322;-64
2021/05/19 11:28:12;;;;;;;0.73;0.73;;;;;;;15.05;72.53;95554.31;5024186;28;20293;-65
2021/05/19 11:30:40;;;;;;;0.93;0.70;;;;;;;15.46;72.10;95564.47;5020669;28;20652;-65
2021/05/19 11:33:10;;;;;;;0.60;0.60;;;;;;;15.80;70.83;95562.38;5018105;28;20315;-65
2021/05/19 11:35:38;;;;;;;0.70;0.70;;;;;;;16.17;68.24;95564.03;5008979;28;20255;-65
2021/05/19 11:38:12;;;;;;;1.13;1.03;;;;;;;16.42;63.56;95556.00;5018803;28;20626;-65
2021/05/19 11:40:41;;;;;;;0.40;0.40;;;;;;;16.60;64.11;95552.50;5018077;28;20254;-66
2021/05/19 11:43:11;;;;;;;0.47;0.47;;;;;;;16.75;64.72;95557.47;5020318;28;20247;-66
2021/05/19 11:45:41;;;;;;;0.97;0.97;;;;;;;16.73;64.74;95567.53;5016574;28;20765;-66
2021/05/19 11:48:18;;;;;;;1.57;1.47;;;;;;;15.22;64.23;95597.16;5018153;28;20365;-66
2021/05/19 11:50:46;;;;;;;1.17;0.90;;;;;;;13.34;66.57;95604.09;5015521;28;20234;-64
2021/05/19 11:53:14;;;;;;;1.30;0.90;;;;;;;11.91;71.94;95612.88;5021487;28;20239;-64
2021/05/19 11:55:45;;;;;;;1.40;1.40;;;;;;;12.03;77.03;95618.44;5022693;28;20222;-66
2021/05/19 11:58:16;;;;;;;1.87;0.90;;;;;;;11.76;77.79;95623.50;5021724;28;20282;-65
2021/05/19 12:00:48;;;;;;;1.60;0.77;;;;;;;11.53;75.75;95623.75;5022595;28;20238;-65
2021/05/19 12:03:17;;;;;;;1.10;1.00;;;;;;;11.21;76.88;95626.91;5020671;28;20742;-65